sensor_id;sensor_type;location;lat;lon;timestamp;P1;durP1;ratioP1;P2;durP2;ratioP2
44169;SDS011;29836;52.286;9.576;2023-03-05T00:00:40;9.20;;;2.72;;
44169;SDS011;29836;52.286;9.576;2023-03-05T00:03:05;10.43;;;2.67;;
44169;SDS011;29836;52.286;9.576;2023-03-05T00:05:31;15.57;;;3.03;;
44169;SDS011;29836;52.286;9.576;2023-03-05T00:07:58;11.77;;;2.75;;
44169;SDS011;29836;52.286;9.576;2023-03-05T00:10:24;7.95;;;1.80;;
44169;SDS011;29836;52.286;9.576;2023-03-05T00:12:50;8.35;;;2.42;;
44169;SDS011;29836;52.286;9.576;2023-03-05T00:15:15;9.80;;;1.92;;
44169;SDS011;29836;52.286;9.576;2023-03-05T00:17:41;4.20;;;1.90;;
44169;SDS011;29836;52.286;9.576;2023-03-05T00:20:06;4.35;;;1.80;;
44169;SDS011;29836;52.286;9.576;2023-03-05T00:22:33;7.35;;;1.73;;
44169;SDS011;29836;52.286;9.576;2023-03-05T00:24:59;6.35;;;1.85;;
44169;SDS011;29836;52.286;9.576;2023-03-05T00:27:25;12.30;;;2.30;;
44169;SDS011;29836;52.286;9.576;2023-03-05T00:29:50;5.15;;;1.25;;
44169;SDS011;29836;52.286;9.576;2023-03-05T00:32:16;3.30;;;1.75;;
44169;SDS011;29836;52.286;9.576;2023-03-05T00:34:41;10.40;;;2.30;;
44169;SDS011;29836;52.286;9.576;2023-03-05T00:37:07;5.10;;;1.85;;
44169;SDS011;29836;52.286;9.576;2023-03-05T00:39:32;8.88;;;1.27;;
44169;SDS011;29836;52.286;9.576;2023-03-05T00:41:58;4.78;;;1.75;;
44169;SDS011;29836;52.286;9.576;2023-03-05T00:44:23;4.28;;;1.33;;
44169;SDS011;29836;52.286;9.576;2023-03-05T00:46:49;10.65;;;2.53;;
44169;SDS011;29836;52.286;9.576;2023-03-05T00:49:15;4.80;;;1.77;;
44169;SDS011;29836;52.286;9.576;2023-03-05T00:51:40;6.25;;;1.63;;
44169;SDS011;29836;52.286;9.576;2023-03-05T00:54:06;11.13;;;2.58;;
44169;SDS011;29836;52.286;9.576;2023-03-05T00:56:32;3.50;;;1.30;;
44169;SDS011;29836;52.286;9.576;2023-03-05T00:58:57;8.45;;;1.70;;
44169;SDS011;29836;52.286;9.576;2023-03-05T01:01:23;10.82;;;1.65;;
44169;SDS011;29836;52.286;9.576;2023-03-05T01:03:49;6.85;;;2.17;;
44169;SDS011;29836;52.286;9.576;2023-03-05T01:06:15;7.88;;;2.42;;
44169;SDS011;29836;52.286;9.576;2023-03-05T01:08:41;9.27;;;2.15;;
44169;SDS011;29836;52.286;9.576;2023-03-05T01:11:08;6.82;;;2.28;;
44169;SDS011;29836;52.286;9.576;2023-03-05T01:13:34;7.40;;;2.33;;
44169;SDS011;29836;52.286;9.576;2023-03-05T01:16:00;8.85;;;2.10;;
44169;SDS011;29836;52.286;9.576;2023-03-05T01:18:27;10.70;;;1.73;;
44169;SDS011;29836;52.286;9.576;2023-03-05T01:20:54;9.20;;;2.22;;
44169;SDS011;29836;52.286;9.576;2023-03-05T01:23:23;7.70;;;2.25;;
44169;SDS011;29836;52.286;9.576;2023-03-05T01:25:53;5.97;;;1.73;;
44169;SDS011;29836;52.286;9.576;2023-03-05T01:28:19;3.72;;;1.20;;
44169;SDS011;29836;52.286;9.576;2023-03-05T01:30:45;6.13;;;1.70;;
44169;SDS011;29836;52.286;9.576;2023-03-05T01:33:10;11.00;;;2.83;;
44169;SDS011;29836;52.286;9.576;2023-03-05T01:35:36;4.70;;;2.70;;
44169;SDS011;29836;52.286;9.576;2023-03-05T01:38:01;4.97;;;1.88;;
44169;SDS011;29836;52.286;9.576;2023-03-05T01:40:28;7.55;;;2.20;;
44169;SDS011;29836;52.286;9.576;2023-03-05T01:42:59;13.52;;;2.58;;
44169;SDS011;29836;52.286;9.576;2023-03-05T01:45:30;3.60;;;1.85;;
44169;SDS011;29836;52.286;9.576;2023-03-05T01:47:56;6.88;;;2.22;;
44169;SDS011;29836;52.286;9.576;2023-03-05T01:50:22;4.95;;;1.95;;
44169;SDS011;29836;52.286;9.576;2023-03-05T01:52:51;2.47;;;1.40;;
44169;SDS011;29836;52.286;9.576;2023-03-05T01:55:22;12.68;;;1.80;;
44169;SDS011;29836;52.286;9.576;2023-03-05T01:57:51;8.23;;;2.08;;
44169;SDS011;29836;52.286;9.576;2023-03-05T02:00:24;2.95;;;1.67;;
44169;SDS011;29836;52.286;9.576;2023-03-05T02:02:53;2.83;;;1.17;;
44169;SDS011;29836;52.286;9.576;2023-03-05T02:05:22;4.82;;;1.80;;
44169;SDS011;29836;52.286;9.576;2023-03-05T02:07:57;3.65;;;1.80;;
44169;SDS011;29836;52.286;9.576;2023-03-05T02:10:25;17.80;;;2.35;;
44169;SDS011;29836;52.286;9.576;2023-03-05T02:12:55;11.07;;;2.05;;
44169;SDS011;29836;52.286;9.576;2023-03-05T02:15:23;4.75;;;1.45;;
44169;SDS011;29836;52.286;9.576;2023-03-05T02:17:48;4.72;;;1.52;;
44169;SDS011;29836;52.286;9.576;2023-03-05T02:20:15;4.35;;;1.50;;
44169;SDS011;29836;52.286;9.576;2023-03-05T02:22:42;4.97;;;2.00;;
44169;SDS011;29836;52.286;9.576;2023-03-05T02:25:15;3.83;;;1.50;;
44169;SDS011;29836;52.286;9.576;2023-03-05T02:27:49;11.30;;;1.85;;
44169;SDS011;29836;52.286;9.576;2023-03-05T02:30:22;5.35;;;1.83;;
44169;SDS011;29836;52.286;9.576;2023-03-05T02:32:48;7.30;;;1.65;;
44169;SDS011;29836;52.286;9.576;2023-03-05T02:35:14;8.48;;;1.38;;
44169;SDS011;29836;52.286;9.576;2023-03-05T02:37:40;5.60;;;1.50;;
44169;SDS011;29836;52.286;9.576;2023-03-05T02:40:07;8.63;;;1.63;;
44169;SDS011;29836;52.286;9.576;2023-03-05T02:42:33;8.82;;;2.08;;
44169;SDS011;29836;52.286;9.576;2023-03-05T02:44:59;2.25;;;1.65;;
44169;SDS011;29836;52.286;9.576;2023-03-05T02:47:25;7.10;;;2.35;;
44169;SDS011;29836;52.286;9.576;2023-03-05T02:49:52;4.32;;;1.50;;
44169;SDS011;29836;52.286;9.576;2023-03-05T02:52:18;4.78;;;1.40;;
44169;SDS011;29836;52.286;9.576;2023-03-05T02:54:44;10.15;;;1.85;;
44169;SDS011;29836;52.286;9.576;2023-03-05T02:57:09;6.63;;;1.50;;
44169;SDS011;29836;52.286;9.576;2023-03-05T02:59:35;5.32;;;2.20;;
44169;SDS011;29836;52.286;9.576;2023-03-05T03:02:00;6.28;;;2.17;;
44169;SDS011;29836;52.286;9.576;2023-03-05T03:04:26;3.25;;;1.50;;
44169;SDS011;29836;52.286;9.576;2023-03-05T03:06:51;3.42;;;1.40;;
44169;SDS011;29836;52.286;9.576;2023-03-05T03:09:17;6.55;;;1.70;;
44169;SDS011;29836;52.286;9.576;2023-03-05T03:11:42;6.13;;;1.63;;
44169;SDS011;29836;52.286;9.576;2023-03-05T03:14:08;6.55;;;1.88;;
44169;SDS011;29836;52.286;9.576;2023-03-05T03:16:33;6.75;;;1.52;;
44169;SDS011;29836;52.286;9.576;2023-03-05T03:18:59;5.50;;;1.75;;
44169;SDS011;29836;52.286;9.576;2023-03-05T03:21:25;5.65;;;1.83;;
44169;SDS011;29836;52.286;9.576;2023-03-05T03:23:51;4.55;;;1.95;;
44169;SDS011;29836;52.286;9.576;2023-03-05T03:26:17;4.68;;;2.00;;
44169;SDS011;29836;52.286;9.576;2023-03-05T03:28:43;4.13;;;1.45;;
44169;SDS011;29836;52.286;9.576;2023-03-05T03:31:09;6.18;;;2.15;;
44169;SDS011;29836;52.286;9.576;2023-03-05T03:33:34;9.25;;;2.33;;
44169;SDS011;29836;52.286;9.576;2023-03-05T03:36:00;4.53;;;1.60;;
44169;SDS011;29836;52.286;9.576;2023-03-05T03:38:25;3.05;;;1.33;;
44169;SDS011;29836;52.286;9.576;2023-03-05T03:40:51;4.65;;;1.92;;
44169;SDS011;29836;52.286;9.576;2023-03-05T03:43:16;3.15;;;1.60;;
44169;SDS011;29836;52.286;9.576;2023-03-05T03:45:42;1.65;;;1.23;;
44169;SDS011;29836;52.286;9.576;2023-03-05T03:48:08;1.67;;;1.13;;
44169;SDS011;29836;52.286;9.576;2023-03-05T03:50:41;3.67;;;1.33;;
44169;SDS011;29836;52.286;9.576;2023-03-05T03:53:07;5.85;;;1.52;;
44169;SDS011;29836;52.286;9.576;2023-03-05T03:55:33;9.32;;;2.08;;
44169;SDS011;29836;52.286;9.576;2023-03-05T03:57:59;8.07;;;2.20;;
44169;SDS011;29836;52.286;9.576;2023-03-05T04:00:25;5.50;;;1.90;;
44169;SDS011;29836;52.286;9.576;2023-03-05T04:02:50;5.53;;;1.65;;
44169;SDS011;29836;52.286;9.576;2023-03-05T04:05:16;2.55;;;1.27;;
44169;SDS011;29836;52.286;9.576;2023-03-05T04:07:42;3.28;;;1.40;;
44169;SDS011;29836;52.286;9.576;2023-03-05T04:10:09;5.28;;;1.33;;
44169;SDS011;29836;52.286;9.576;2023-03-05T04:12:35;6.70;;;2.05;;
44169;SDS011;29836;52.286;9.576;2023-03-05T04:15:01;4.47;;;2.00;;
44169;SDS011;29836;52.286;9.576;2023-03-05T04:17:27;4.22;;;1.70;;
44169;SDS011;29836;52.286;9.576;2023-03-05T04:19:52;8.32;;;2.17;;
44169;SDS011;29836;52.286;9.576;2023-03-05T04:22:18;7.22;;;2.60;;
44169;SDS011;29836;52.286;9.576;2023-03-05T04:24:44;3.92;;;1.85;;
44169;SDS011;29836;52.286;9.576;2023-03-05T04:27:09;7.35;;;1.92;;
44169;SDS011;29836;52.286;9.576;2023-03-05T04:29:35;11.68;;;2.72;;
44169;SDS011;29836;52.286;9.576;2023-03-05T04:32:01;7.72;;;2.47;;
44169;SDS011;29836;52.286;9.576;2023-03-05T04:34:27;3.90;;;2.10;;
44169;SDS011;29836;52.286;9.576;2023-03-05T04:36:52;7.30;;;1.92;;
44169;SDS011;29836;52.286;9.576;2023-03-05T04:39:18;10.95;;;2.38;;
44169;SDS011;29836;52.286;9.576;2023-03-05T04:41:45;4.32;;;2.20;;
44169;SDS011;29836;52.286;9.576;2023-03-05T04:44:11;3.35;;;2.08;;
44169;SDS011;29836;52.286;9.576;2023-03-05T04:46:37;4.80;;;1.27;;
44169;SDS011;29836;52.286;9.576;2023-03-05T04:49:02;6.13;;;1.73;;
44169;SDS011;29836;52.286;9.576;2023-03-05T04:51:28;4.13;;;1.63;;
44169;SDS011;29836;52.286;9.576;2023-03-05T04:53:53;7.50;;;2.05;;
44169;SDS011;29836;52.286;9.576;2023-03-05T04:56:19;8.63;;;1.75;;
44169;SDS011;29836;52.286;9.576;2023-03-05T04:58:45;4.93;;;2.08;;
44169;SDS011;29836;52.286;9.576;2023-03-05T05:01:11;5.35;;;1.80;;
44169;SDS011;29836;52.286;9.576;2023-03-05T05:03:37;5.65;;;2.50;;
44169;SDS011;29836;52.286;9.576;2023-03-05T05:06:02;8.23;;;1.75;;
44169;SDS011;29836;52.286;9.576;2023-03-05T05:08:28;7.97;;;2.45;;
44169;SDS011;29836;52.286;9.576;2023-03-05T05:11:06;4.32;;;2.10;;
44169;SDS011;29836;52.286;9.576;2023-03-05T05:13:32;3.55;;;1.92;;
44169;SDS011;29836;52.286;9.576;2023-03-05T05:15:58;5.18;;;2.50;;
44169;SDS011;29836;52.286;9.576;2023-03-05T05:18:24;4.43;;;1.98;;
44169;SDS011;29836;52.286;9.576;2023-03-05T05:20:49;6.07;;;2.13;;
44169;SDS011;29836;52.286;9.576;2023-03-05T05:23:15;5.63;;;1.92;;
44169;SDS011;29836;52.286;9.576;2023-03-05T05:25:42;11.95;;;2.10;;
44169;SDS011;29836;52.286;9.576;2023-03-05T05:28:08;4.72;;;1.63;;
44169;SDS011;29836;52.286;9.576;2023-03-05T05:30:34;8.68;;;1.60;;
44169;SDS011;29836;52.286;9.576;2023-03-05T05:33:00;9.50;;;3.15;;
44169;SDS011;29836;52.286;9.576;2023-03-05T05:35:26;5.47;;;2.70;;
44169;SDS011;29836;52.286;9.576;2023-03-05T05:37:51;2.97;;;1.77;;
44169;SDS011;29836;52.286;9.576;2023-03-05T05:40:17;3.17;;;1.73;;
44169;SDS011;29836;52.286;9.576;2023-03-05T05:42:43;3.10;;;1.50;;
44169;SDS011;29836;52.286;9.576;2023-03-05T05:45:09;7.43;;;1.52;;
44169;SDS011;29836;52.286;9.576;2023-03-05T05:47:35;6.95;;;1.95;;
44169;SDS011;29836;52.286;9.576;2023-03-05T05:50:00;1.73;;;1.20;;
44169;SDS011;29836;52.286;9.576;2023-03-05T05:52:26;3.85;;;1.60;;
44169;SDS011;29836;52.286;9.576;2023-03-05T05:54:51;4.22;;;1.85;;
44169;SDS011;29836;52.286;9.576;2023-03-05T05:57:17;3.30;;;2.00;;
44169;SDS011;29836;52.286;9.576;2023-03-05T05:59:42;6.55;;;2.28;;
44169;SDS011;29836;52.286;9.576;2023-03-05T06:02:08;3.65;;;2.28;;
44169;SDS011;29836;52.286;9.576;2023-03-05T06:04:35;4.72;;;1.58;;
44169;SDS011;29836;52.286;9.576;2023-03-05T06:07:00;5.20;;;2.08;;
44169;SDS011;29836;52.286;9.576;2023-03-05T06:09:27;4.65;;;2.13;;
44169;SDS011;29836;52.286;9.576;2023-03-05T06:11:52;3.28;;;1.60;;
44169;SDS011;29836;52.286;9.576;2023-03-05T06:14:18;5.60;;;2.17;;
44169;SDS011;29836;52.286;9.576;2023-03-05T06:16:43;7.47;;;1.83;;
44169;SDS011;29836;52.286;9.576;2023-03-05T06:19:12;5.72;;;1.90;;
44169;SDS011;29836;52.286;9.576;2023-03-05T06:21:40;4.00;;;2.00;;
44169;SDS011;29836;52.286;9.576;2023-03-05T06:24:07;17.45;;;2.30;;
44169;SDS011;29836;52.286;9.576;2023-03-05T06:26:33;3.97;;;1.77;;
44169;SDS011;29836;52.286;9.576;2023-03-05T06:28:59;5.72;;;2.42;;
44169;SDS011;29836;52.286;9.576;2023-03-05T06:31:26;5.03;;;2.25;;
44169;SDS011;29836;52.286;9.576;2023-03-05T06:33:54;6.97;;;2.05;;
44169;SDS011;29836;52.286;9.576;2023-03-05T06:36:21;6.47;;;2.58;;
44169;SDS011;29836;52.286;9.576;2023-03-05T06:38:48;2.95;;;1.70;;
44169;SDS011;29836;52.286;9.576;2023-03-05T06:41:15;5.57;;;2.08;;
44169;SDS011;29836;52.286;9.576;2023-03-05T06:43:43;5.82;;;2.60;;
44169;SDS011;29836;52.286;9.576;2023-03-05T06:46:15;13.88;;;2.92;;
44169;SDS011;29836;52.286;9.576;2023-03-05T06:48:48;8.55;;;3.13;;
44169;SDS011;29836;52.286;9.576;2023-03-05T06:51:16;4.47;;;1.90;;
44169;SDS011;29836;52.286;9.576;2023-03-05T06:53:43;3.67;;;2.10;;
44169;SDS011;29836;52.286;9.576;2023-03-05T06:56:09;5.20;;;2.10;;
44169;SDS011;29836;52.286;9.576;2023-03-05T06:58:35;5.65;;;2.05;;
44169;SDS011;29836;52.286;9.576;2023-03-05T07:01:03;4.50;;;2.05;;
44169;SDS011;29836;52.286;9.576;2023-03-05T07:03:29;5.55;;;2.10;;
44169;SDS011;29836;52.286;9.576;2023-03-05T07:05:54;4.80;;;2.38;;
44169;SDS011;29836;52.286;9.576;2023-03-05T07:08:20;7.32;;;2.72;;
44169;SDS011;29836;52.286;9.576;2023-03-05T07:10:45;7.78;;;2.03;;
44169;SDS011;29836;52.286;9.576;2023-03-05T07:13:11;4.97;;;2.20;;
44169;SDS011;29836;52.286;9.576;2023-03-05T07:15:37;4.70;;;1.88;;
44169;SDS011;29836;52.286;9.576;2023-03-05T07:18:04;4.53;;;2.33;;
44169;SDS011;29836;52.286;9.576;2023-03-05T07:20:30;11.15;;;1.60;;
44169;SDS011;29836;52.286;9.576;2023-03-05T07:22:58;4.60;;;1.38;;
44169;SDS011;29836;52.286;9.576;2023-03-05T07:25:23;7.75;;;2.00;;
44169;SDS011;29836;52.286;9.576;2023-03-05T07:27:49;4.95;;;1.55;;
44169;SDS011;29836;52.286;9.576;2023-03-05T07:30:15;2.50;;;1.77;;
44169;SDS011;29836;52.286;9.576;2023-03-05T07:32:41;7.57;;;1.20;;
44169;SDS011;29836;52.286;9.576;2023-03-05T07:35:06;2.38;;;1.48;;
44169;SDS011;29836;52.286;9.576;2023-03-05T07:37:32;3.05;;;1.70;;
44169;SDS011;29836;52.286;9.576;2023-03-05T07:39:58;2.03;;;1.30;;
44169;SDS011;29836;52.286;9.576;2023-03-05T07:42:23;5.53;;;1.80;;
44169;SDS011;29836;52.286;9.576;2023-03-05T07:44:49;1.52;;;1.00;;
44169;SDS011;29836;52.286;9.576;2023-03-05T07:47:15;2.90;;;1.45;;
44169;SDS011;29836;52.286;9.576;2023-03-05T07:49:40;2.75;;;1.55;;
44169;SDS011;29836;52.286;9.576;2023-03-05T07:52:06;2.30;;;1.08;;
44169;SDS011;29836;52.286;9.576;2023-03-05T07:54:32;4.45;;;1.73;;
44169;SDS011;29836;52.286;9.576;2023-03-05T07:57:05;2.63;;;1.35;;
44169;SDS011;29836;52.286;9.576;2023-03-05T07:59:31;2.03;;;1.08;;
44169;SDS011;29836;52.286;9.576;2023-03-05T08:01:57;2.15;;;1.20;;
44169;SDS011;29836;52.286;9.576;2023-03-05T08:04:23;4.07;;;1.15;;
44169;SDS011;29836;52.286;9.576;2023-03-05T08:06:49;3.10;;;1.17;;
44169;SDS011;29836;52.286;9.576;2023-03-05T08:09:15;2.50;;;1.10;;
44169;SDS011;29836;52.286;9.576;2023-03-05T08:11:42;2.10;;;1.00;;
44169;SDS011;29836;52.286;9.576;2023-03-05T08:14:08;2.20;;;1.00;;
44169;SDS011;29836;52.286;9.576;2023-03-05T08:16:34;1.25;;;0.90;;
44169;SDS011;29836;52.286;9.576;2023-03-05T08:19:00;2.65;;;0.80;;
44169;SDS011;29836;52.286;9.576;2023-03-05T08:21:26;1.70;;;0.90;;
44169;SDS011;29836;52.286;9.576;2023-03-05T08:23:55;1.67;;;0.85;;
44169;SDS011;29836;52.286;9.576;2023-03-05T08:26:22;3.25;;;1.27;;
44169;SDS011;29836;52.286;9.576;2023-03-05T08:28:49;3.80;;;1.50;;
44169;SDS011;29836;52.286;9.576;2023-03-05T08:31:16;5.40;;;1.10;;
44169;SDS011;29836;52.286;9.576;2023-03-05T08:33:42;4.80;;;1.35;;
44169;SDS011;29836;52.286;9.576;2023-03-05T08:36:08;2.50;;;1.08;;
44169;SDS011;29836;52.286;9.576;2023-03-05T08:38:34;3.22;;;1.10;;
44169;SDS011;29836;52.286;9.576;2023-03-05T08:41:00;3.88;;;1.27;;
44169;SDS011;29836;52.286;9.576;2023-03-05T08:43:26;7.15;;;1.30;;
44169;SDS011;29836;52.286;9.576;2023-03-05T08:45:52;3.25;;;1.25;;
44169;SDS011;29836;52.286;9.576;2023-03-05T08:48:17;3.15;;;1.48;;
44169;SDS011;29836;52.286;9.576;2023-03-05T08:50:44;1.92;;;1.23;;
44169;SDS011;29836;52.286;9.576;2023-03-05T08:53:10;3.20;;;1.30;;
44169;SDS011;29836;52.286;9.576;2023-03-05T08:55:35;2.20;;;1.25;;
44169;SDS011;29836;52.286;9.576;2023-03-05T08:58:02;3.60;;;1.60;;
44169;SDS011;29836;52.286;9.576;2023-03-05T09:00:28;1.15;;;0.98;;
44169;SDS011;29836;52.286;9.576;2023-03-05T09:02:53;3.90;;;1.00;;
44169;SDS011;29836;52.286;9.576;2023-03-05T09:05:19;1.55;;;1.02;;
44169;SDS011;29836;52.286;9.576;2023-03-05T09:07:45;1.77;;;0.85;;
44169;SDS011;29836;52.286;9.576;2023-03-05T09:10:11;2.03;;;1.20;;
44169;SDS011;29836;52.286;9.576;2023-03-05T09:12:38;1.63;;;1.10;;
44169;SDS011;29836;52.286;9.576;2023-03-05T09:15:05;8.23;;;1.98;;
44169;SDS011;29836;52.286;9.576;2023-03-05T09:17:32;1.48;;;1.10;;
44169;SDS011;29836;52.286;9.576;2023-03-05T09:20:01;2.35;;;1.10;;
44169;SDS011;29836;52.286;9.576;2023-03-05T09:22:27;2.03;;;1.10;;
44169;SDS011;29836;52.286;9.576;2023-03-05T09:24:53;3.40;;;1.23;;
44169;SDS011;29836;52.286;9.576;2023-03-05T09:27:19;2.45;;;0.95;;
44169;SDS011;29836;52.286;9.576;2023-03-05T09:29:44;0.98;;;0.80;;
44169;SDS011;29836;52.286;9.576;2023-03-05T09:32:10;5.03;;;1.23;;
44169;SDS011;29836;52.286;9.576;2023-03-05T09:34:35;2.97;;;1.42;;
44169;SDS011;29836;52.286;9.576;2023-03-05T09:37:01;1.35;;;0.98;;
44169;SDS011;29836;52.286;9.576;2023-03-05T09:39:27;2.58;;;1.30;;
44169;SDS011;29836;52.286;9.576;2023-03-05T09:42:05;7.38;;;1.13;;
44169;SDS011;29836;52.286;9.576;2023-03-05T09:50:58;2.90;;;0.80;;
44169;SDS011;29836;52.286;9.576;2023-03-05T09:53:42;6.30;;;1.10;;
44169;SDS011;29836;52.286;9.576;2023-03-05T09:56:11;2.38;;;1.10;;
44169;SDS011;29836;52.286;9.576;2023-03-05T09:58:41;2.03;;;1.17;;
44169;SDS011;29836;52.286;9.576;2023-03-05T10:01:12;3.13;;;0.98;;
44169;SDS011;29836;52.286;9.576;2023-03-05T10:04:30;3.03;;;0.98;;
44169;SDS011;29836;52.286;9.576;2023-03-05T10:14:31;1.85;;;1.20;;
44169;SDS011;29836;52.286;9.576;2023-03-05T10:17:02;6.75;;;1.58;;
44169;SDS011;29836;52.286;9.576;2023-03-05T10:22:39;2.60;;;1.15;;
44169;SDS011;29836;52.286;9.576;2023-03-05T10:25:33;4.53;;;1.73;;
44169;SDS011;29836;52.286;9.576;2023-03-05T10:28:16;1.75;;;1.23;;
44169;SDS011;29836;52.286;9.576;2023-03-05T10:31:07;7.20;;;1.27;;
44169;SDS011;29836;52.286;9.576;2023-03-05T10:39:31;1.15;;;0.90;;
44169;SDS011;29836;52.286;9.576;2023-03-05T10:45:00;1.95;;;0.90;;
44169;SDS011;29836;52.286;9.576;2023-03-05T10:47:53;19.75;;;1.25;;
44169;SDS011;29836;52.286;9.576;2023-03-05T10:50:24;5.97;;;1.77;;
44169;SDS011;29836;52.286;9.576;2023-03-05T10:55:59;5.10;;;1.35;;
44169;SDS011;29836;52.286;9.576;2023-03-05T10:58:29;1.70;;;1.05;;
44169;SDS011;29836;52.286;9.576;2023-03-05T11:03:46;1.80;;;0.77;;
44169;SDS011;29836;52.286;9.576;2023-03-05T11:06:15;3.20;;;0.90;;
44169;SDS011;29836;52.286;9.576;2023-03-05T11:08:53;3.63;;;0.77;;
44169;SDS011;29836;52.286;9.576;2023-03-05T11:11:19;1.10;;;0.65;;
44169;SDS011;29836;52.286;9.576;2023-03-05T11:13:51;2.40;;;0.90;;
44169;SDS011;29836;52.286;9.576;2023-03-05T11:16:31;1.58;;;0.90;;
44169;SDS011;29836;52.286;9.576;2023-03-05T11:21:40;1.20;;;0.88;;
44169;SDS011;29836;52.286;9.576;2023-03-05T11:24:16;10.02;;;1.13;;
44169;SDS011;29836;52.286;9.576;2023-03-05T11:26:47;1.98;;;0.85;;
44169;SDS011;29836;52.286;9.576;2023-03-05T11:29:19;2.15;;;0.80;;
44169;SDS011;29836;52.286;9.576;2023-03-05T11:31:47;1.27;;;1.05;;
44169;SDS011;29836;52.286;9.576;2023-03-05T11:39:25;0.63;;;0.50;;
44169;SDS011;29836;52.286;9.576;2023-03-05T11:47:08;2.58;;;1.00;;
44169;SDS011;29836;52.286;9.576;2023-03-05T11:49:40;0.98;;;0.77;;
44169;SDS011;29836;52.286;9.576;2023-03-05T11:52:23;4.97;;;0.93;;
44169;SDS011;29836;52.286;9.576;2023-03-05T11:54:58;2.10;;;1.00;;
44169;SDS011;29836;52.286;9.576;2023-03-05T11:57:29;1.38;;;0.75;;
44169;SDS011;29836;52.286;9.576;2023-03-05T12:00:05;1.05;;;0.80;;
44169;SDS011;29836;52.286;9.576;2023-03-05T12:02:36;4.25;;;0.85;;
44169;SDS011;29836;52.286;9.576;2023-03-05T12:05:02;0.90;;;0.70;;
44169;SDS011;29836;52.286;9.576;2023-03-05T12:07:33;1.48;;;0.73;;
44169;SDS011;29836;52.286;9.576;2023-03-05T12:10:03;1.17;;;0.82;;
44169;SDS011;29836;52.286;9.576;2023-03-05T12:12:32;1.08;;;0.82;;
44169;SDS011;29836;52.286;9.576;2023-03-05T12:23:09;0.85;;;0.75;;
44169;SDS011;29836;52.286;9.576;2023-03-05T12:28:51;1.08;;;0.88;;
44169;SDS011;29836;52.286;9.576;2023-03-05T12:31:00;10.80;;;0.85;;
44169;SDS011;29836;52.286;9.576;2023-03-05T12:33:49;0.57;;;0.55;;
44169;SDS011;29836;52.286;9.576;2023-03-05T12:38:50;1.67;;;0.52;;
44169;SDS011;29836;52.286;9.576;2023-03-05T12:46:29;0.55;;;0.55;;
44169;SDS011;29836;52.286;9.576;2023-03-05T12:48:57;0.70;;;0.70;;
44169;SDS011;29836;52.286;9.576;2023-03-05T12:51:41;1.75;;;0.80;;
44169;SDS011;29836;52.286;9.576;2023-03-05T12:54:22;2.83;;;0.95;;
44169;SDS011;29836;52.286;9.576;2023-03-05T12:56:53;4.60;;;0.70;;
44169;SDS011;29836;52.286;9.576;2023-03-05T12:59:20;2.17;;;0.80;;
44169;SDS011;29836;52.286;9.576;2023-03-05T13:04:28;0.50;;;0.50;;
44169;SDS011;29836;52.286;9.576;2023-03-05T13:06:57;2.80;;;0.93;;
44169;SDS011;29836;52.286;9.576;2023-03-05T13:09:25;1.55;;;0.63;;
44169;SDS011;29836;52.286;9.576;2023-03-05T13:11:53;1.48;;;1.00;;
44169;SDS011;29836;52.286;9.576;2023-03-05T13:14:26;1.20;;;0.98;;
44169;SDS011;29836;52.286;9.576;2023-03-05T13:16:58;0.75;;;0.75;;
44169;SDS011;29836;52.286;9.576;2023-03-05T13:19:24;2.85;;;0.70;;
44169;SDS011;29836;52.286;9.576;2023-03-05T13:22:00;1.95;;;0.80;;
44169;SDS011;29836;52.286;9.576;2023-03-05T13:24:27;7.30;;;0.82;;
44169;SDS011;29836;52.286;9.576;2023-03-05T13:26:54;1.25;;;0.60;;
44169;SDS011;29836;52.286;9.576;2023-03-05T13:29:20;1.25;;;0.60;;
44169;SDS011;29836;52.286;9.576;2023-03-05T13:31:53;4.68;;;0.73;;
44169;SDS011;29836;52.286;9.576;2023-03-05T13:39:36;0.55;;;0.50;;
44169;SDS011;29836;52.286;9.576;2023-03-05T13:42:14;1.05;;;0.73;;
44169;SDS011;29836;52.286;9.576;2023-03-05T13:44:40;2.35;;;0.40;;
44169;SDS011;29836;52.286;9.576;2023-03-05T13:47:07;0.52;;;0.45;;
44169;SDS011;29836;52.286;9.576;2023-03-05T13:49:43;1.05;;;0.73;;
44169;SDS011;29836;52.286;9.576;2023-03-05T13:52:11;1.60;;;0.60;;
44169;SDS011;29836;52.286;9.576;2023-03-05T13:54:47;0.52;;;0.50;;
44169;SDS011;29836;52.286;9.576;2023-03-05T13:57:30;0.95;;;0.68;;
44169;SDS011;29836;52.286;9.576;2023-03-05T14:00:07;2.50;;;0.70;;
44169;SDS011;29836;52.286;9.576;2023-03-05T14:02:49;2.83;;;0.75;;
44169;SDS011;29836;52.286;9.576;2023-03-05T14:05:15;0.90;;;0.63;;
44169;SDS011;29836;52.286;9.576;2023-03-05T14:07:40;2.15;;;1.15;;
44169;SDS011;29836;52.286;9.576;2023-03-05T14:10:27;0.88;;;0.60;;
44169;SDS011;29836;52.286;9.576;2023-03-05T14:12:55;0.77;;;0.50;;
44169;SDS011;29836;52.286;9.576;2023-03-05T14:15:23;0.88;;;0.60;;
44169;SDS011;29836;52.286;9.576;2023-03-05T14:17:51;2.78;;;0.82;;
44169;SDS011;29836;52.286;9.576;2023-03-05T14:20:26;0.95;;;0.85;;
44169;SDS011;29836;52.286;9.576;2023-03-05T14:22:54;0.95;;;0.73;;
44169;SDS011;29836;52.286;9.576;2023-03-05T14:25:35;2.28;;;0.70;;
44169;SDS011;29836;52.286;9.576;2023-03-05T14:30:44;0.95;;;0.70;;
44169;SDS011;29836;52.286;9.576;2023-03-05T14:33:11;1.45;;;1.00;;
44169;SDS011;29836;52.286;9.576;2023-03-05T14:35:37;1.92;;;0.93;;
44169;SDS011;29836;52.286;9.576;2023-03-05T14:38:04;8.93;;;0.80;;
44169;SDS011;29836;52.286;9.576;2023-03-05T14:40:33;2.00;;;0.88;;
44169;SDS011;29836;52.286;9.576;2023-03-05T14:43:00;1.70;;;1.00;;
44169;SDS011;29836;52.286;9.576;2023-03-05T14:45:29;3.47;;;1.05;;
44169;SDS011;29836;52.286;9.576;2023-03-05T14:47:58;5.85;;;1.85;;
44169;SDS011;29836;52.286;9.576;2023-03-05T14:50:28;5.05;;;1.13;;
44169;SDS011;29836;52.286;9.576;2023-03-05T14:52:58;0.77;;;0.60;;
44169;SDS011;29836;52.286;9.576;2023-03-05T14:55:31;2.25;;;1.23;;
44169;SDS011;29836;52.286;9.576;2023-03-05T14:58:00;1.33;;;0.95;;
44169;SDS011;29836;52.286;9.576;2023-03-05T15:00:39;1.92;;;0.57;;
44169;SDS011;29836;52.286;9.576;2023-03-05T15:03:05;1.75;;;1.05;;
44169;SDS011;29836;52.286;9.576;2023-03-05T15:05:31;7.20;;;1.15;;
44169;SDS011;29836;52.286;9.576;2023-03-05T15:07:57;2.15;;;0.77;;
44169;SDS011;29836;52.286;9.576;2023-03-05T15:10:23;1.33;;;0.55;;
44169;SDS011;29836;52.286;9.576;2023-03-05T15:12:49;0.73;;;0.65;;
44169;SDS011;29836;52.286;9.576;2023-03-05T15:15:17;3.42;;;0.90;;
44169;SDS011;29836;52.286;9.576;2023-03-05T15:17:44;2.20;;;1.00;;
44169;SDS011;29836;52.286;9.576;2023-03-05T15:20:22;1.27;;;0.73;;
44169;SDS011;29836;52.286;9.576;2023-03-05T15:22:49;5.95;;;1.00;;
44169;SDS011;29836;52.286;9.576;2023-03-05T15:25:15;1.27;;;0.80;;
44169;SDS011;29836;52.286;9.576;2023-03-05T15:27:41;2.08;;;0.82;;
44169;SDS011;29836;52.286;9.576;2023-03-05T15:30:07;2.42;;;0.98;;
44169;SDS011;29836;52.286;9.576;2023-03-05T15:32:33;2.60;;;0.88;;
44169;SDS011;29836;52.286;9.576;2023-03-05T15:34:59;3.08;;;0.82;;
44169;SDS011;29836;52.286;9.576;2023-03-05T15:37:24;1.70;;;1.10;;
44169;SDS011;29836;52.286;9.576;2023-03-05T15:39:51;3.70;;;1.10;;
44169;SDS011;29836;52.286;9.576;2023-03-05T15:42:17;3.83;;;1.10;;
44169;SDS011;29836;52.286;9.576;2023-03-05T15:44:43;2.30;;;1.10;;
44169;SDS011;29836;52.286;9.576;2023-03-05T15:47:08;1.30;;;0.52;;
44169;SDS011;29836;52.286;9.576;2023-03-05T15:49:34;1.73;;;0.75;;
44169;SDS011;29836;52.286;9.576;2023-03-05T15:52:00;4.30;;;1.17;;
44169;SDS011;29836;52.286;9.576;2023-03-05T15:54:25;3.65;;;0.95;;
44169;SDS011;29836;52.286;9.576;2023-03-05T15:56:51;1.80;;;1.10;;
44169;SDS011;29836;52.286;9.576;2023-03-05T15:59:17;1.55;;;1.05;;
44169;SDS011;29836;52.286;9.576;2023-03-05T16:01:44;2.72;;;0.60;;
44169;SDS011;29836;52.286;9.576;2023-03-05T16:04:15;3.30;;;0.88;;
44169;SDS011;29836;52.286;9.576;2023-03-05T16:06:42;2.13;;;1.02;;